Time;durP1;ratioP1;P1;durP2;ratioP2;P2;SDS_P1;SDS_P2;PMS_P1;PMS_P2;Temp;Humidity;BMP_temperature;BMP_pressure;BME280_temperature;BME280_humidity;BME280_pressure;Samples;Min_cycle;Max_cycle;Signal;HPM_P1;HPM_P2
2023/05/07 00:01:02;;;;;;;;;18.67;18.67;;;;;;;;6486581;31;8934;-59
2023/05/07 00:07:08;;;;;;;;;17.33;17.33;;;;;;;;6486518;39;8920;-62
2023/05/07 00:13:15;;;;;;;;;21.75;20.75;;;;;;;;6486202;47;8856;-60
2023/05/07 00:19:36;;;;;;;;;18.00;17.33;;;;;;;;6485862;32;9671;-61
2023/05/07 00:25:40;;;;;;;;;17.00;14.33;;;;;;;;6486332;47;8887;-61
2023/05/07 00:31:50;;;;;;;;;18.33;15.00;;;;;;;;6486345;31;8869;-61
2023/05/07 00:37:56;;;;;;;;;9.33;9.33;;;;;;;;6486598;39;8860;-62
2023/05/07 00:44:03;;;;;;;;;12.00;12.00;;;;;;;;6486287;39;8995;-61
2023/05/07 00:50:10;;;;;;;;;14.33;14.33;;;;;;;;6488021;39;9045;-61
2023/05/07 00:56:21;;;;;;;;;13.25;12.25;;;;;;;;6487931;39;9516;-61
2023/05/07 01:02:36;;;;;;;;;13.25;12.25;;;;;;;;6488027;46;8962;-59
2023/05/07 01:08:41;;;;;;;;;12.25;12.25;;;;;;;;6488861;39;8961;-60
2023/05/07 01:14:48;;;;;;;;;11.00;11.00;;;;;;;;6487835;46;8896;-61
2023/05/07 01:20:58;;;;;;;;;15.75;13.00;;;;;;;;6488113;39;8873;-60
2023/05/07 01:27:02;;;;;;;;;12.00;12.00;;;;;;;;6488007;46;8840;-60
2023/05/07 01:33:17;;;;;;;;;16.00;15.50;;;;;;;;6487856;46;8893;-60
2023/05/07 01:39:28;;;;;;;;;21.00;15.00;;;;;;;;6488078;39;8896;-59
2023/05/07 01:45:34;;;;;;;;;14.50;13.25;;;;;;;;6489297;39;8889;-61
2023/05/07 01:51:44;;;;;;;;;15.75;14.00;;;;;;;;6489286;39;8998;-61
2023/05/07 01:57:50;;;;;;;;;16.00;13.00;;;;;;;;6488960;39;8908;-62
2023/05/07 02:04:01;;;;;;;;;13.50;13.00;;;;;;;;6487514;39;9965;-61
2023/05/07 02:10:45;;;;;;;;;13.50;13.25;;;;;;;;6487902;31;9078;-62
2023/05/07 02:16:52;;;;;;;;;16.75;16.75;;;;;;;;6626184;36;8923;-59
2023/05/07 02:23:03;;;;;;;;;17.50;15.25;;;;;;;;6487010;39;8955;-60
2023/05/07 02:29:17;;;;;;;;;18.75;14.75;;;;;;;;6488149;39;8916;-61
2023/05/07 02:35:25;;;;;;;;;18.50;15.00;;;;;;;;6487157;46;8948;-61
2023/05/07 02:41:29;;;;;;;;;14.25;12.00;;;;;;;;6487573;46;8899;-60
2023/05/07 02:47:33;;;;;;;;;16.25;16.25;;;;;;;;6487824;31;8929;-60
2023/05/07 02:53:40;;;;;;;;;15.25;14.75;;;;;;;;6487240;39;8868;-60
2023/05/07 02:59:43;;;;;;;;;16.00;14.00;;;;;;;;6487586;31;8856;-61
2023/05/07 03:05:51;;;;;;;;;14.75;14.75;;;;;;;;6487314;39;8888;-60
2023/05/07 03:11:56;;;;;;;;;15.00;13.25;;;;;;;;6487019;39;9770;-58
2023/05/07 03:17:59;;;;;;;;;15.00;15.00;;;;;;;;6486866;39;8934;-61
2023/05/07 03:24:02;;;;;;;;;14.50;12.50;;;;;;;;6487804;39;8865;-60
2023/05/07 03:30:04;;;;;;;;;17.50;15.50;;;;;;;;6487218;39;8923;-60
2023/05/07 03:36:07;;;;;;;;;14.75;14.75;;;;;;;;6486535;31;9686;-61
2023/05/07 03:42:12;;;;;;;;;16.00;14.75;;;;;;;;6487093;31;8974;-62
2023/05/07 03:48:15;;;;;;;;;14.50;13.50;;;;;;;;6487015;46;8969;-60
2023/05/07 03:54:18;;;;;;;;;15.75;13.75;;;;;;;;6486772;39;8946;-61
2023/05/07 04:00:24;;;;;;;;;14.75;13.00;;;;;;;;6486165;39;8935;-60
2023/05/07 04:06:34;;;;;;;;;19.75;16.00;;;;;;;;6487085;39;8863;-61
2023/05/07 04:12:41;;;;;;;;;10.75;10.25;;;;;;;;6486589;39;8893;-60
2023/05/07 04:18:50;;;;;;;;;15.67;12.00;;;;;;;;6486873;31;9000;-61
2023/05/07 04:24:53;;;;;;;;;14.50;13.25;;;;;;;;6489347;31;9085;-60
2023/05/07 04:30:55;;;;;;;;;15.25;12.00;;;;;;;;6488876;39;8957;-61
2023/05/07 04:36:59;;;;;;;;;17.00;16.00;;;;;;;;6489290;31;8884;-60
2023/05/07 04:43:03;;;;;;;;;14.25;13.50;;;;;;;;6488600;39;8864;-60
2023/05/07 04:49:22;;;;;;;;;14.00;14.00;;;;;;;;6488303;46;9025;-60
2023/05/07 04:55:27;;;;;;;;;17.25;13.50;;;;;;;;6487747;31;8915;-62
2023/05/07 05:01:30;;;;;;;;;11.50;11.50;;;;;;;;6488319;39;8968;-60
2023/05/07 05:07:34;;;;;;;;;14.67;14.67;;;;;;;;6488483;39;8950;-59
2023/05/07 05:13:38;;;;;;;;;15.25;13.25;;;;;;;;6487994;39;8845;-62
2023/05/07 05:19:49;;;;;;;;;18.50;14.00;;;;;;;;6487867;46;8919;-61
2023/05/07 05:25:57;;;;;;;;;11.67;10.33;;;;;;;;6487747;39;8956;-60
2023/05/07 05:32:04;;;;;;;;;16.00;15.00;;;;;;;;6487217;46;8998;-61
2023/05/07 05:38:08;;;;;;;;;13.33;11.33;;;;;;;;6488205;39;9485;-60
2023/05/07 05:44:10;;;;;;;;;14.00;14.00;;;;;;;;6488017;46;8926;-61
2023/05/07 05:50:17;;;;;;;;;13.33;12.00;;;;;;;;6488507;31;9077;-61
2023/05/07 05:56:21;;;;;;;;;14.00;13.67;;;;;;;;6488401;39;8895;-60
2023/05/07 06:02:27;;;;;;;;;11.33;11.33;;;;;;;;6487164;32;8943;-61
2023/05/07 06:08:31;;;;;;;;;10.00;10.00;;;;;;;;6488650;31;8968;-61
2023/05/07 06:14:35;;;;;;;;;9.67;9.67;;;;;;;;6487454;46;8881;-60
2023/05/07 06:20:37;;;;;;;;;8.33;8.33;;;;;;;;6487294;39;8840;-60
2023/05/07 06:26:47;;;;;;;;;8.00;7.67;;;;;;;;6488047;39;9634;-61
2023/05/07 06:32:50;;;;;;;;;10.67;9.00;;;;;;;;6488230;39;8856;-60
2023/05/07 06:38:56;;;;;;;;;9.00;8.00;;;;;;;;6487498;39;9496;-59
2023/05/07 06:45:00;;;;;;;;;11.33;9.00;;;;;;;;6487870;31;8899;-61
2023/05/07 06:51:09;;;;;;;;;9.67;9.33;;;;;;;;6487588;39;8964;-61
2023/05/07 06:57:18;;;;;;;;;10.00;10.00;;;;;;;;6487118;46;8964;-61
2023/05/07 07:03:22;;;;;;;;;9.67;9.67;;;;;;;;6486546;46;8956;-61
2023/05/07 07:09:27;;;;;;;;;11.33;11.33;;;;;;;;6486855;31;8935;-61
2023/05/07 07:15:57;;;;;;;;;9.67;8.67;;;;;;;;6488895;39;9494;-60
2023/05/07 07:22:04;;;;;;;;;11.33;8.00;;;;;;;;6487391;31;8876;-60
2023/05/07 07:28:08;;;;;;;;;8.00;8.00;;;;;;;;6487232;39;8909;-59
2023/05/07 07:34:16;;;;;;;;;13.00;9.67;;;;;;;;6487538;46;8892;-61
2023/05/07 07:40:21;;;;;;;;;7.75;7.75;;;;;;;;6486714;39;8849;-62
2023/05/07 07:46:24;;;;;;;;;10.00;10.00;;;;;;;;6487494;31;8927;-60
2023/05/07 07:52:30;;;;;;;;;9.00;7.67;;;;;;;;6488180;39;8960;-60
2023/05/07 07:58:36;;;;;;;;;11.67;11.67;;;;;;;;6486584;39;9583;-62
2023/05/07 08:04:45;;;;;;;;;12.00;12.00;;;;;;;;6486623;39;8912;-60
